• Join FlightAware (Why Join?)
  • Login
  • US Flag 
07:41PM EDT


 

Airport Tracker/Info


-or-


 

Live Flight TrackerFlight Track Log ✈ UCA596 ✈ 03-Sep-2013 ✈ KIAD - KBGM

Flight Track Log - Related Links

Times and Time Zones

All times are in EDT time to prevent confusion due to time zone crossing. See the UCA596 flight status page for this flight to view local times or setup timezone preferences in your user account.

Time Position Orientation Groundspeed Altitude Reporting Facility
EDT Latitude Longitude Course Direction KTS MPH feet Rate Location/Type
12:57PM 38.9667 -77.4333 339° North 119 137 1,800  Level Potomac TRACON
12:58PM 39.0000 -77.4500 339° North 149 171 3,500 1,440 Climbing Potomac TRACON
01:00PM 39.0742 -77.4497 360° North 160 184 6,000 1,200 Climbing Washington Center
01:01PM 39.1239 -77.4697 343° North 165 190 7,000 1,080 Climbing Washington Center
01:02PM 39.1756 -77.5033 333° Northwest 183 211 8,200 1,320 Climbing Washington Center
01:03PM 39.2269 -77.5342 335° Northwest 195 224 9,600 1,560 Climbing Washington Center
01:04PM 39.2767 -77.5569 340° North 195 224 11,400 1,560 Climbing Washington Center
01:05PM 39.3311 -77.5531 North 189 217 12,800 1,200 Climbing Washington Center
01:06PM 39.3856 -77.5331 16° North 184 212 13,900 960 Climbing Washington Center
01:07PM 39.4442 -77.5131 15° North 198 228 14,800 960 Climbing Washington Center
01:08PM 39.5089 -77.4958 12° North 219 252 15,900 600 Climbing Washington Center
01:09PM 39.5761 -77.4761 13° North 231 266 16,000 60 Climbing Washington Center
01:10PM 39.6472 -77.4536 14° North 243 280 16,100 240 Climbing Washington Center
01:11PM 39.7411 -77.4453 North 261 300 16,600 360 Climbing New York Center
01:12PM 39.8100 -77.4086 22° Northeast 261 300 16,900 180 Climbing New York Center
01:13PM 39.8808 -77.3719 22° Northeast 272 313 17,000  Climbing New York Center
01:14PM 39.9539 -77.3328 22° Northeast 277 319 16,900  Descending New York Center
01:15PM 40.0258 -77.2744 32° Northeast 284 327 17,000  Climbing New York Center
01:16PM 40.0956 -77.2211 30° Northeast 292 336 16,900 360 Descending New York Center
01:17PM 40.1567 -77.1700 33° Northeast 292 336 17,800 1,020 Climbing New York Center
01:18PM 40.2219 -77.1189 31° Northeast 258 297 19,000 600 Climbing New York Center
01:19PM 40.2839 -77.0917 19° North 247 284 19,000  Level New York Center
01:20PM 40.3614 -77.0497 22° Northeast 263 303 19,000  Level New York Center
01:21PM 40.4275 -77.0203 19° North 268 308 19,000  Level New York Center
01:22PM 40.5025 -76.9808 22° Northeast 268 308 19,000  Level New York Center
01:23PM 40.5667 -76.9483 21° North 263 303 19,000  Level New York Center
01:24PM 40.6436 -76.9114 20° North 258 297 19,000 -240 Level New York Center
01:25PM 40.7078 -76.8789 21° North 258 297 18,600 -540 Descending New York Center
01:26PM 40.7911 -76.8397 20° North 268 308 18,000 -600 Descending New York Center
01:27PM 40.8575 -76.8044 22° Northeast 280 322 17,500 -540 Descending New York Center
01:28PM 40.9347 -76.7644 21° North 285 328 17,000 -300 Descending New York Center
01:29PM 41.0072 -76.7297 20° North 285 328 17,000  Level New York Center
01:30PM 41.0800 -76.6919 21° North 280 322 17,000  Level New York Center
01:31PM 41.1506 -76.6569 20° North 280 322 17,000  Level New York Center
01:32PM 41.2275 -76.6167 21° North 280 322 17,000  Level New York Center
01:33PM 41.2983 -76.5758 23° Northeast 274 315 17,000  Level New York Center
01:34PM 41.3708 -76.5406 20° North 274 315 17,000  Level New York Center
01:35PM 41.4347 -76.5100 20° North 279 321 17,000 -120 Level New York Center
01:36PM 41.5072 -76.4747 20° North 274 315 16,800 -720 Descending New York Center
01:37PM 41.5864 -76.4314 22° Northeast 279 321 15,600 -1,080 Descending New York Center
01:38PM 41.6589 -76.3961 20° North 279 321 14,700 -960 Descending New York Center
01:39PM 41.7294 -76.3603 21° North 279 321 13,700 -960 Descending New York Center
01:40PM 41.7933 -76.3267 21° North 273 314 12,800 -900 Descending New York Center
01:41PM 41.8617 -76.2906 21° North 273 314 11,900 -1,380 Descending New York Center
01:42PM 41.9364 -76.2522 21° North 266 306 10,100 -1,620 Descending New York Center
01:43PM 41.9961 -76.2208 21° North 247 284 8,700 -1,500 Descending New York Center
01:44PM 42.0558 -76.1922 20° North 230 265 7,100 -1,680 Descending New York Center
01:45PM 42.1111 -76.1633 21° North 223 257 5,400 -1,740 Descending New York Center
01:46PM 42.1450 -76.1072 51° Northeast 188 216 3,700 -1,140 Descending New York Center
01:47PM 42.1436 -76.0400 92° East 162 186 3,200 -420 Descending New York Center
01:48PM 42.1356 -75.9892 102° East 150 173 2,900 -420 Descending New York Center
01:49PM 42.1600 -75.9519 48° Northeast 130 150 2,400 -420 Descending New York Center
01:50PM 42.1814 -75.9394 23° Northeast 102 117 2,100 3,300 Descending New York Center
01:51PM 42.2033 -75.9133 41° Northeast 102 117 9,000 3,420 Climbing New York Center
01:52PM 42.2253 -75.8869 42° Northeast 102 117 9,000  Level New York Center
01:54PM 42.2086 -75.9797 256° West  Level Estimated
02:01PM 42.2086 -75.9797 200° South  Level Estimated